createdAt,value
2022-09-30T00:00:17.590Z,97106.81
2022-09-30T00:05:20.124Z,97096.22
2022-09-30T00:10:23.204Z,97096.53
2022-09-30T00:15:25.609Z,97097.50
2022-09-30T00:20:27.949Z,97102.03
2022-09-30T00:25:30.315Z,97101.13
2022-09-30T00:30:34.378Z,97100.72
2022-09-30T00:35:38.129Z,97109.41
2022-09-30T00:40:40.917Z,97107.16
2022-09-30T00:45:59.587Z,97105.78
2022-09-30T00:51:05.271Z,97113.63
2022-09-30T00:56:09.461Z,97114.75
2022-09-30T01:01:12.387Z,97122.75
2022-09-30T01:06:14.779Z,97118.38
2022-09-30T01:11:17.907Z,97113.09
2022-09-30T01:17:01.753Z,97114.44
2022-09-30T01:22:15.831Z,97119.78
2022-09-30T01:27:42.668Z,97123.53
2022-09-30T01:33:03.832Z,97122.22
2022-09-30T01:38:14.219Z,97117.59
2022-09-30T01:43:35.418Z,97112.00
2022-09-30T01:48:53.104Z,97111.28
2022-09-30T01:54:07.486Z,97121.31
2022-09-30T01:59:24.860Z,97119.78
2022-09-30T02:04:42.503Z,97136.50
2022-09-30T02:10:03.413Z,97145.03
2022-09-30T02:15:18.332Z,97150.53
2022-09-30T02:20:27.652Z,97146.66
2022-09-30T02:25:35.776Z,97151.63
2022-09-30T02:30:44.274Z,97152.56
2022-09-30T02:35:58.752Z,97158.94
2022-09-30T02:41:21.526Z,97163.41
2022-09-30T02:46:47.228Z,97170.53
2022-09-30T02:52:16.169Z,97171.31
2022-09-30T02:57:19.544Z,97172.25
2022-09-30T03:02:23.335Z,97179.88
2022-09-30T03:07:26.120Z,97192.09
2022-09-30T03:12:41.708Z,97194.78
2022-09-30T03:18:09.500Z,97187.34
2022-09-30T03:23:30.120Z,97201.97
2022-09-30T03:28:42.939Z,97197.09
2022-09-30T03:34:15.256Z,97204.09
2022-09-30T03:39:31.076Z,97205.34
2022-09-30T03:44:41.299Z,97207.78
2022-09-30T03:49:53.205Z,97218.06
2022-09-30T03:55:00.564Z,97208.06
2022-09-30T04:00:04.145Z,97211.72
2022-09-30T04:05:08.587Z,97224.19
2022-09-30T04:10:11.932Z,97228.03
2022-09-30T04:15:14.301Z,97237.44
2022-09-30T04:20:16.683Z,97252.38
2022-09-30T04:25:19.120Z,97248.06
2022-09-30T04:30:25.653Z,97244.72
2022-09-30T04:35:30.173Z,97241.75
2022-09-30T04:40:33.216Z,97251.63
2022-09-30T04:45:36.016Z,97243.38
2022-09-30T04:50:38.417Z,97256.53
2022-09-30T04:55:42.088Z,97261.72
2022-09-30T05:00:44.705Z,97264.44
2022-09-30T05:05:48.672Z,97274.53
2022-09-30T05:10:58.902Z,97282.03
2022-09-30T05:16:02.262Z,97291.88
2022-09-30T05:21:05.567Z,97288.59
2022-09-30T05:26:11.916Z,97306.09
2022-09-30T05:31:15.108Z,97299.34
2022-09-30T05:36:17.668Z,97301.44
2022-09-30T05:41:24.425Z,97305.06
2022-09-30T05:46:26.960Z,97310.72
2022-09-30T05:51:29.400Z,97311.13
2022-09-30T05:56:31.994Z,97314.25
2022-09-30T06:01:34.780Z,97318.31
2022-09-30T06:06:37.159Z,97331.00
2022-09-30T06:11:40.262Z,97338.00
2022-09-30T06:16:42.679Z,97331.31
2022-09-30T06:21:45.319Z,97335.78
2022-09-30T06:26:47.749Z,97347.41
2022-09-30T06:31:50.372Z,97356.91
2022-09-30T06:36:54.177Z,97370.53
2022-09-30T06:41:56.628Z,97371.97
2022-09-30T06:47:02.320Z,97371.47
2022-09-30T06:52:05.053Z,97376.66
2022-09-30T06:57:07.480Z,97385.56
2022-09-30T07:02:11.366Z,97392.56
2022-09-30T07:07:13.957Z,97397.97
2022-09-30T07:12:17.370Z,97404.16
2022-09-30T07:17:20.086Z,97403.78
2022-09-30T07:22:32.003Z,97403.88
2022-09-30T07:27:34.795Z,97418.09
2022-09-30T07:32:37.545Z,97428.22
2022-09-30T07:37:40.757Z,97419.25
2022-09-30T07:42:46.282Z,97420.19
2022-09-30T07:47:53.504Z,97429.06
2022-09-30T07:52:56.462Z,97438.75
2022-09-30T07:57:58.815Z,97445.44
2022-09-30T08:03:01.223Z,97448.94
2022-09-30T08:08:03.671Z,97460.00
2022-09-30T08:13:06.599Z,97470.94
2022-09-30T08:18:09.030Z,97469.44
2022-09-30T08:23:11.707Z,97464.56
2022-09-30T08:28:14.883Z,97477.00
2022-09-30T08:33:17.287Z,97470.56
2022-09-30T08:38:20.320Z,97480.44
2022-09-30T08:43:43.151Z,97474.50
2022-09-30T08:49:18.105Z,97481.94
2022-09-30T08:54:25.300Z,97485.56
2022-09-30T08:59:39.840Z,97487.69
2022-09-30T09:04:42.634Z,97485.06
2022-09-30T09:09:48.021Z,97490.09
2022-09-30T09:15:18.022Z,97485.56
2022-09-30T09:20:25.854Z,97485.88
2022-09-30T09:25:28.790Z,97486.50
2022-09-30T09:30:39.381Z,97489.66
2022-09-30T09:35:52.442Z,97488.03
2022-09-30T09:41:19.411Z,97490.31
2022-09-30T09:46:27.299Z,97497.13
2022-09-30T09:51:33.682Z,97497.75
2022-09-30T09:56:37.953Z,97503.84
2022-09-30T10:01:52.001Z,97506.22
2022-09-30T10:07:01.562Z,97501.56
2022-09-30T10:12:06.878Z,97511.22
2022-09-30T10:17:18.626Z,97508.78
2022-09-30T10:22:27.685Z,97506.19
2022-09-30T10:27:34.349Z,97510.75
2022-09-30T10:32:36.975Z,97518.00
2022-09-30T10:37:51.609Z,97509.69
2022-09-30T10:42:56.085Z,97514.72
2022-09-30T10:48:02.138Z,97523.38
2022-09-30T10:53:14.888Z,97515.81
2022-09-30T10:58:38.322Z,97511.38
2022-09-30T11:03:49.315Z,97507.94
2022-09-30T11:09:28.504Z,97509.81
2022-09-30T11:14:44.208Z,97509.09
2022-09-30T11:20:09.121Z,97493.63
2022-09-30T11:25:17.450Z,97504.25
2022-09-30T11:30:22.226Z,97511.47
2022-09-30T11:35:41.621Z,97506.31
2022-09-30T11:41:11.330Z,97506.69
2022-09-30T11:46:28.977Z,97509.53
2022-09-30T11:52:09.241Z,97510.53
2022-09-30T11:57:29.018Z,97508.00
2022-09-30T12:02:38.151Z,97503.63
2022-09-30T12:07:52.766Z,97507.41
2022-09-30T12:13:03.554Z,97502.63
2022-09-30T12:18:11.193Z,97502.03
2022-09-30T12:23:35.538Z,97500.88
2022-09-30T12:29:05.492Z,97503.78
2022-09-30T12:34:21.806Z,97487.66
2022-09-30T12:39:43.096Z,97495.34
2022-09-30T12:45:30.212Z,97501.16
2022-09-30T12:50:40.946Z,97504.41
2022-09-30T12:55:43.541Z,97513.31
2022-09-30T13:01:07.534Z,97501.69
2022-09-30T13:06:10.189Z,97510.38
2022-09-30T13:11:33.237Z,97512.38
2022-09-30T13:17:01.859Z,97508.16
2022-09-30T13:22:24.109Z,97505.75
2022-09-30T13:27:51.664Z,97505.56
2022-09-30T13:32:57.549Z,97512.75
2022-09-30T13:38:15.343Z,97509.28
2022-09-30T13:43:30.111Z,97517.81
2022-09-30T13:48:39.470Z,97514.38
2022-09-30T13:53:55.359Z,97507.09
2022-09-30T13:59:16.984Z,97521.88
2022-09-30T14:04:34.649Z,97522.16
2022-09-30T14:09:53.700Z,97522.59
2022-09-30T14:15:32.881Z,97532.03
2022-09-30T14:20:47.342Z,97541.56
2022-09-30T14:26:09.730Z,97539.44
2022-09-30T14:31:14.879Z,97540.41
2022-09-30T14:36:22.024Z,97536.31
2022-09-30T14:41:25.609Z,97535.50
2022-09-30T14:46:38.864Z,97537.59
2022-09-30T14:51:47.179Z,97528.66
2022-09-30T14:56:51.139Z,97527.13
2022-09-30T15:02:00.678Z,97522.88
2022-09-30T15:07:07.223Z,97519.97
2022-09-30T15:12:26.811Z,97514.97
2022-09-30T15:17:39.163Z,97511.44
2022-09-30T15:22:42.496Z,97512.91
2022-09-30T15:27:45.564Z,97510.34
2022-09-30T15:32:51.375Z,97526.81
2022-09-30T15:38:05.932Z,97524.28
2022-09-30T15:43:11.406Z,97528.53
2022-09-30T15:48:19.863Z,97528.88
2022-09-30T15:53:26.247Z,97526.81
2022-09-30T15:58:38.843Z,97529.91
2022-09-30T16:03:58.884Z,97532.09
2022-09-30T16:09:06.706Z,97534.19
2022-09-30T16:14:21.455Z,97531.34
2022-09-30T16:19:26.291Z,97539.84
2022-09-30T16:24:28.995Z,97548.88
2022-09-30T16:29:31.411Z,97556.25
2022-09-30T16:34:37.868Z,97551.47
2022-09-30T16:39:40.603Z,97554.25
2022-09-30T16:44:44.534Z,97550.16
2022-09-30T16:49:48.099Z,97559.09
2022-09-30T16:54:50.915Z,97556.00
2022-09-30T16:59:53.501Z,97558.03
2022-09-30T17:04:55.916Z,97567.94
2022-09-30T17:09:58.263Z,97573.25
2022-09-30T17:15:00.639Z,97574.47
2022-09-30T17:20:03.040Z,97573.56
2022-09-30T17:25:05.867Z,97584.22
2022-09-30T17:30:09.063Z,97585.09
2022-09-30T17:35:11.815Z,97585.25
2022-09-30T17:40:33.365Z,97582.97
2022-09-30T17:45:37.376Z,97589.97
2022-09-30T17:50:42.518Z,97594.06
2022-09-30T17:55:49.405Z,97597.53
2022-09-30T18:00:52.094Z,97605.13
2022-09-30T18:05:58.867Z,97603.56
2022-09-30T18:11:01.603Z,97609.88
2022-09-30T18:16:07.592Z,97610.53
2022-09-30T18:21:12.062Z,97620.56
2022-09-30T18:26:17.571Z,97624.78
2022-09-30T18:31:28.481Z,97628.50
2022-09-30T18:36:35.318Z,97628.91
2022-09-30T18:41:43.096Z,97635.25
2022-09-30T18:46:47.644Z,97650.19
2022-09-30T18:51:50.174Z,97661.25
2022-09-30T18:56:52.875Z,97656.41
2022-09-30T19:01:57.998Z,97662.03
2022-09-30T19:07:00.612Z,97658.31
2022-09-30T19:12:03.024Z,97660.75
2022-09-30T19:17:05.488Z,97655.31
2022-09-30T19:22:08.567Z,97661.97
2022-09-30T19:27:11.419Z,97666.63
2022-09-30T19:32:13.896Z,97670.31
2022-09-30T19:37:26.833Z,97662.75
2022-09-30T19:42:30.122Z,97655.09
2022-09-30T19:47:34.430Z,97650.00
2022-09-30T19:52:43.101Z,97655.78
2022-09-30T19:57:50.626Z,97650.41
2022-09-30T20:02:53.349Z,97638.22
2022-09-30T20:07:55.846Z,97643.44
2022-09-30T20:12:58.180Z,97630.09
2022-09-30T20:18:00.535Z,97639.50
2022-09-30T20:23:03.575Z,97639.75
2022-09-30T20:28:06.780Z,97629.78
2022-09-30T20:33:09.172Z,97633.53
2022-09-30T20:38:14.280Z,97640.50
2022-09-30T20:43:16.621Z,97637.69
2022-09-30T20:48:19.121Z,97648.88
2022-09-30T20:53:21.627Z,97647.84
2022-09-30T20:58:24.063Z,97655.06
2022-09-30T21:03:26.520Z,97661.56
2022-09-30T21:08:29.623Z,97672.06
2022-09-30T21:13:32.125Z,97675.38
2022-09-30T21:18:34.613Z,97686.81
2022-09-30T21:23:37.573Z,97698.59
2022-09-30T21:28:40.332Z,97701.78
2022-09-30T21:33:44.047Z,97708.47
2022-09-30T21:38:46.831Z,97712.97
2022-09-30T21:43:49.691Z,97710.84
2022-09-30T21:48:53.913Z,97718.88
2022-09-30T21:53:57.183Z,97733.00
2022-09-30T21:58:59.636Z,97739.50
2022-09-30T22:04:02.184Z,97735.50
2022-09-30T22:09:05.536Z,97727.88
2022-09-30T22:14:09.139Z,97716.56
2022-09-30T22:19:13.590Z,97714.56
2022-09-30T22:24:16.174Z,97701.25
2022-09-30T22:29:18.549Z,97712.16
2022-09-30T22:34:39.500Z,97706.50
2022-09-30T22:39:41.958Z,97700.16
2022-09-30T22:44:44.330Z,97712.78
2022-09-30T22:49:47.114Z,97714.44
2022-09-30T22:54:49.451Z,97703.78
2022-09-30T22:59:52.915Z,97702.06
2022-09-30T23:04:55.327Z,97710.16
2022-09-30T23:09:57.909Z,97711.66
2022-09-30T23:15:00.256Z,97710.66
2022-09-30T23:20:02.842Z,97724.34
2022-09-30T23:25:05.741Z,97718.13
2022-09-30T23:30:08.395Z,97716.81
2022-09-30T23:35:11.322Z,97721.78
2022-09-30T23:40:13.707Z,97724.03
2022-09-30T23:45:16.083Z,97727.13
2022-09-30T23:50:18.461Z,97733.03
2022-09-30T23:55:21.722Z,97726.63
